Time;durP1;ratioP1;P1;durP2;ratioP2;P2;SDS_P1;SDS_P2;PMS_P1;PMS_P2;Temp;Humidity;BMP_temperature;BMP_pressure;BME280_temperature;BME280_humidity;BME280_pressure;Samples;Min_cycle;Max_cycle;Signal;HPM_P1;HPM_P2
2022/03/05 00:00:22;;;;;;;6.87;3.83;;;0.30;1.00;;;;;;4912967;29;20231;-52
2022/03/05 00:02:47;;;;;;;7.43;3.40;;;0.30;1.00;;;;;;4912755;29;20894;-52
2022/03/05 00:05:13;;;;;;;9.20;3.43;;;0.30;1.00;;;;;;4915081;29;20191;-59
2022/03/05 00:07:39;;;;;;;9.67;3.63;;;0.20;1.00;;;;;;4913516;29;20199;-52
2022/03/05 00:10:05;;;;;;;10.73;3.63;;;0.10;1.00;;;;;;4913027;29;20187;-52
2022/03/05 00:12:31;;;;;;;6.70;3.80;;;0.00;1.00;;;;;;4912042;29;20439;-52
2022/03/05 00:14:56;;;;;;;9.67;3.50;;;0.10;1.00;;;;;;4912471;29;20434;-51
2022/03/05 00:17:22;;;;;;;5.43;3.60;;;0.00;1.00;;;;;;4912228;29;20219;-52
2022/03/05 00:19:48;;;;;;;9.33;4.17;;;0.10;1.00;;;;;;4912353;29;20975;-53
2022/03/05 00:22:14;;;;;;;11.53;4.10;;;0.10;1.00;;;;;;4912780;29;20187;-54
2022/03/05 00:24:39;;;;;;;6.37;3.73;;;0.00;1.00;;;;;;4912691;29;20570;-52
2022/03/05 00:27:05;;;;;;;11.40;3.83;;;0.00;1.00;;;;;;4911442;29;20188;-59
2022/03/05 00:29:30;;;;;;;8.63;3.93;;;0.00;1.00;;;;;;4911791;29;20210;-56
2022/03/05 00:31:56;;;;;;;15.13;5.00;;;0.00;1.00;;;;;;4911828;29;20195;-52
2022/03/05 00:34:22;;;;;;;11.33;4.03;;;-0.10;1.00;;;;;;4912241;29;20184;-51
2022/03/05 00:36:48;;;;;;;7.53;4.40;;;-0.10;1.00;;;;;;4910109;29;20542;-52
2022/03/05 00:39:13;;;;;;;6.43;4.00;;;-0.10;1.00;;;;;;4907187;29;20199;-52
2022/03/05 00:41:39;;;;;;;7.03;3.10;;;0.00;1.00;;;;;;4911711;29;20195;-52
2022/03/05 00:44:05;;;;;;;5.83;3.47;;;-0.10;1.00;;;;;;4908956;29;20305;-52
2022/03/05 00:46:30;;;;;;;7.77;3.60;;;0.00;1.00;;;;;;4911537;29;20243;-52
2022/03/05 00:48:56;;;;;;;7.83;4.10;;;0.10;1.00;;;;;;4912453;29;20697;-52
2022/03/05 00:51:21;;;;;;;5.10;3.60;;;0.00;1.00;;;;;;4911678;29;20211;-52
2022/03/05 00:53:47;;;;;;;6.60;3.27;;;-0.10;1.00;;;;;;4911186;29;20187;-52
2022/03/05 00:56:12;;;;;;;5.47;3.60;;;-0.10;1.00;;;;;;4912515;29;20627;-52
2022/03/05 00:58:38;;;;;;;8.90;3.30;;;-0.10;1.00;;;;;;4911952;29;20191;-52
2022/03/05 01:01:04;;;;;;;6.40;3.53;;;-0.20;1.00;;;;;;4894610;29;20198;-51
2022/03/05 01:03:30;;;;;;;9.47;3.50;;;-0.20;1.00;;;;;;4911596;29;20211;-55
2022/03/05 01:05:56;;;;;;;8.43;3.43;;;-0.20;1.00;;;;;;4915424;29;20481;-52
2022/03/05 01:08:21;;;;;;;7.10;3.50;;;-0.30;1.00;;;;;;4914746;29;20187;-53
2022/03/05 01:10:47;;;;;;;8.87;4.20;;;-0.30;1.00;;;;;;4915199;29;20195;-52
2022/03/05 01:13:12;;;;;;;5.70;3.77;;;-0.30;1.00;;;;;;4915451;29;20186;-52
2022/03/05 01:15:38;;;;;;;7.00;3.67;;;-0.40;1.00;;;;;;4914642;29;20282;-52
2022/03/05 01:18:04;;;;;;;7.00;3.50;;;-0.40;1.00;;;;;;4914741;29;20183;-51
2022/03/05 01:20:30;;;;;;;6.20;3.40;;;-0.40;1.00;;;;;;4914957;29;20206;-52
2022/03/05 01:22:55;;;;;;;5.83;3.70;;;-0.40;1.00;;;;;;4914876;29;20220;-51
2022/03/05 01:25:21;;;;;;;9.57;3.80;;;-0.50;1.00;;;;;;4915637;29;20226;-52
2022/03/05 01:27:46;;;;;;;7.37;3.43;;;-0.50;1.00;;;;;;4914991;29;20201;-52
2022/03/05 01:30:12;;;;;;;10.47;4.73;;;-0.40;1.00;;;;;;4897105;29;20282;-55
2022/03/05 01:32:38;;;;;;;4.67;3.10;;;-0.40;1.00;;;;;;4910824;29;20243;-52
2022/03/05 01:35:04;;;;;;;8.10;3.70;;;-0.40;1.00;;;;;;4897632;29;20306;-51
2022/03/05 01:37:30;;;;;;;8.83;3.53;;;-0.50;1.00;;;;;;4914030;29;20995;-52
2022/03/05 01:39:56;;;;;;;8.00;3.83;;;-0.60;1.00;;;;;;4914595;29;20433;-54
2022/03/05 01:42:22;;;;;;;9.70;3.90;;;-0.60;1.00;;;;;;4914293;29;20423;-52
2022/03/05 01:44:47;;;;;;;5.57;3.30;;;-0.60;1.00;;;;;;4914366;29;20202;-52
2022/03/05 01:47:13;;;;;;;10.63;3.93;;;-0.50;1.00;;;;;;4914168;29;20828;-52
2022/03/05 01:49:38;;;;;;;6.03;3.87;;;-0.60;1.00;;;;;;4913943;29;20216;-52
2022/03/05 01:52:04;;;;;;;8.10;3.90;;;-0.60;1.00;;;;;;4913864;29;20246;-53
2022/03/05 01:54:30;;;;;;;9.03;4.30;;;-0.70;1.00;;;;;;4914073;29;20203;-53
2022/03/05 01:56:58;;;;;;;10.07;3.70;;;-0.70;1.00;;;;;;4912900;29;20269;-52
2022/03/05 01:59:24;;;;;;;8.00;3.73;;;-0.60;1.00;;;;;;4914368;29;20187;-52
2022/03/05 02:01:49;;;;;;;8.50;4.00;;;-0.70;1.00;;;;;;4894366;29;20443;-52
2022/03/05 02:04:15;;;;;;;11.17;5.80;;;-0.70;1.00;;;;;;4913253;29;20491;-52
2022/03/05 02:06:41;;;;;;;11.40;4.00;;;-0.60;1.00;;;;;;4913642;29;20191;-52
2022/03/05 02:09:06;;;;;;;6.93;4.23;;;-0.60;1.00;;;;;;4914902;29;20637;-53
2022/03/05 02:11:32;;;;;;;8.07;4.10;;;-0.70;1.00;;;;;;4912629;29;20257;-52
2022/03/05 02:13:58;;;;;;;7.57;4.70;;;-0.70;1.00;;;;;;4910550;29;20708;-52
2022/03/05 02:16:25;;;;;;;11.37;4.23;;;-0.70;1.00;;;;;;4912688;29;20515;-52
2022/03/05 02:18:55;;;;;;;6.40;4.03;;;-0.80;1.00;;;;;;4914212;29;20605;-52
2022/03/05 02:21:22;;;;;;;7.53;4.20;;;-0.80;1.00;;;;;;4913122;29;20474;-52
2022/03/05 02:23:48;;;;;;;8.83;4.27;;;-0.80;1.00;;;;;;4913809;29;20795;-52
2022/03/05 02:26:14;;;;;;;6.63;3.83;;;-0.80;1.00;;;;;;4914044;29;20598;-52
2022/03/05 02:28:40;;;;;;;6.97;3.97;;;-0.70;1.00;;;;;;4914015;29;20530;-52
2022/03/05 02:31:06;;;;;;;9.77;3.80;;;-0.70;1.00;;;;;;4913301;29;20285;-52
2022/03/05 02:33:33;;;;;;;7.67;3.80;;;-0.80;1.00;;;;;;4912701;29;20481;-52
2022/03/05 02:35:59;;;;;;;14.70;4.67;;;-0.90;1.00;;;;;;4912989;29;20518;-60
2022/03/05 02:38:25;;;;;;;7.47;3.60;;;-0.90;1.00;;;;;;4912415;29;20465;-52
2022/03/05 02:40:51;;;;;;;6.67;4.00;;;-0.90;1.00;;;;;;4912836;29;20447;-52
2022/03/05 02:43:18;;;;;;;11.03;4.20;;;-0.80;1.00;;;;;;4913532;29;20191;-52
2022/03/05 02:45:44;;;;;;;7.53;3.63;;;-0.90;1.00;;;;;;4896369;29;20439;-52
2022/03/05 02:48:13;;;;;;;10.30;3.30;;;-0.90;1.00;;;;;;4912834;29;20442;-52
2022/03/05 02:50:39;;;;;;;7.43;3.73;;;-0.90;1.00;;;;;;4896455;29;20495;-52
2022/03/05 02:53:05;;;;;;;6.70;3.30;;;-0.90;1.00;;;;;;4913337;29;20904;-52
2022/03/05 02:55:31;;;;;;;7.00;3.27;;;-0.90;1.00;;;;;;4913596;29;20534;-52
2022/03/05 02:57:57;;;;;;;4.40;2.90;;;-0.90;1.00;;;;;;4912302;29;20289;-52
2022/03/05 03:00:22;;;;;;;7.50;3.37;;;-0.90;1.00;;;;;;4913229;29;20522;-53
2022/03/05 03:02:49;;;;;;;7.13;3.50;;;-1.00;1.00;;;;;;4913112;29;20648;-52
2022/03/05 03:05:16;;;;;;;6.40;3.60;;;-1.00;1.00;;;;;;4913477;29;20175;-51
2022/03/05 03:07:43;;;;;;;9.03;4.13;;;-1.00;1.00;;;;;;4912961;29;20449;-52
2022/03/05 03:10:10;;;;;;;9.03;3.37;;;-1.10;1.00;;;;;;4912641;29;20447;-52
2022/03/05 03:12:36;;;;;;;14.10;6.07;;;-1.10;1.00;;;;;;4912839;29;20470;-52
2022/03/05 03:15:03;;;;;;;11.10;6.03;;;-1.10;6.80;;;;;;4912919;29;21149;-52
2022/03/05 03:17:29;;;;;;;11.63;3.53;;;-1.10;13.00;;;;;;4913170;29;20203;-52
2022/03/05 03:19:55;;;;;;;7.00;3.70;;;-1.10;69.60;;;;;;4910883;29;20936;-52
2022/03/05 03:22:20;;;;;;;6.47;3.57;;;-1.00;77.70;;;;;;4912450;29;20286;-52
2022/03/05 03:24:46;;;;;;;7.03;3.23;;;-1.10;61.10;;;;;;4913129;29;20207;-52
2022/03/05 03:27:12;;;;;;;9.07;3.80;;;-1.10;60.60;;;;;;4911348;29;20194;-52
2022/03/05 03:29:37;;;;;;;5.40;3.33;;;-1.10;94.10;;;;;;4913004;29;20451;-51
2022/03/05 03:32:04;;;;;;;6.27;3.33;;;-1.10;99.90;;;;;;4912969;29;20190;-52
2022/03/05 03:34:29;;;;;;;4.40;2.70;;;-1.10;99.90;;;;;;4912337;29;20191;-52
2022/03/05 03:36:55;;;;;;;7.03;3.20;;;-1.10;99.90;;;;;;4912212;29;20486;-52
2022/03/05 03:39:21;;;;;;;12.33;3.43;;;-1.10;92.70;;;;;;4895709;29;20199;-52
2022/03/05 03:41:46;;;;;;;8.87;3.73;;;-1.20;99.50;;;;;;4895197;29;20187;-53
2022/03/05 03:44:12;;;;;;;6.07;3.97;;;-1.20;99.90;;;;;;4912513;29;20191;-52
2022/03/05 03:46:38;;;;;;;8.47;3.43;;;-1.10;99.90;;;;;;4911836;29;20187;-54
2022/03/05 03:49:03;;;;;;;5.30;3.00;;;-1.10;99.90;;;;;;4912446;29;20286;-51
2022/03/05 03:51:29;;;;;;;11.70;3.40;;;-1.10;99.90;;;;;;4911692;29;20530;-52
2022/03/05 03:53:55;;;;;;;5.70;3.50;;;-1.10;99.90;;;;;;4913011;29;20186;-52
2022/03/05 03:56:20;;;;;;;5.67;3.87;;;-1.00;99.90;;;;;;4911359;29;20211;-52
2022/03/05 03:58:46;;;;;;;5.13;3.90;;;-1.00;99.90;;;;;;4912622;29;20278;-52
2022/03/05 04:01:12;;;;;;;7.50;3.70;;;-1.00;99.90;;;;;;4912517;29;20302;-52
2022/03/05 04:03:37;;;;;;;8.80;3.50;;;-1.00;99.90;;;;;;4909428;29;20198;-53
2022/03/05 04:06:03;;;;;;;8.20;3.77;;;-1.00;99.90;;;;;;4912818;29;20242;-52
2022/03/05 04:08:44;;;;;;;12.93;3.77;;;-1.00;99.90;;;;;;4895590;29;20219;-53
2022/03/05 04:11:16;;;;;;;10.03;4.00;;;-1.00;99.90;;;;;;4912231;29;20473;-52
2022/03/05 04:13:45;;;;;;;7.70;3.03;;;-1.00;99.90;;;;;;4912457;29;20929;-52
2022/03/05 04:16:11;;;;;;;7.23;3.83;;;-1.00;99.90;;;;;;4912680;29;20489;-53
2022/03/05 04:18:37;;;;;;;5.30;3.67;;;-1.00;99.90;;;;;;4912246;29;20793;-54
2022/03/05 04:21:04;;;;;;;9.33;3.93;;;-1.00;99.90;;;;;;4911949;29;20435;-52
2022/03/05 04:23:30;;;;;;;7.07;4.03;;;-0.90;99.90;;;;;;4912381;29;20777;-52
2022/03/05 04:25:55;;;;;;;7.23;3.77;;;-1.00;99.90;;;;;;4911849;29;20431;-52
2022/03/05 04:28:21;;;;;;;9.80;4.00;;;-0.90;99.90;;;;;;4893799;29;20195;-52
2022/03/05 04:30:46;;;;;;;13.57;3.60;;;-0.90;99.90;;;;;;4911750;29;20570;-53
2022/03/05 04:33:13;;;;;;;6.43;3.90;;;-0.90;99.90;;;;;;4912211;29;20191;-52
2022/03/05 04:35:38;;;;;;;9.40;4.27;;;-0.80;99.90;;;;;;4894880;29;20191;-52
2022/03/05 04:38:05;;;;;;;13.70;4.43;;;-0.90;99.90;;;;;;4911463;29;20446;-52
2022/03/05 04:40:31;;;;;;;19.13;5.50;;;-0.90;99.90;;;;;;4914887;29;20201;-52
2022/03/05 04:42:57;;;;;;;18.53;8.20;;;-1.00;99.90;;;;;;4915963;29;20443;-54
2022/03/05 04:45:22;;;;;;;23.60;7.00;;;-1.00;99.90;;;;;;4897983;29;20187;-53
2022/03/05 04:47:48;;;;;;;16.27;5.70;;;-1.00;1.00;;;;;;4915260;29;20199;-52
2022/03/05 04:50:14;;;;;;;12.23;5.33;;;-1.10;1.00;;;;;;4915072;29;20201;-52
2022/03/05 04:52:39;;;;;;;10.63;4.60;;;-1.10;1.00;;;;;;4914977;29;20201;-51
2022/03/05 04:55:06;;;;;;;12.50;4.23;;;-1.10;1.00;;;;;;4915622;29;20187;-52
2022/03/05 04:57:32;;;;;;;8.80;3.87;;;-1.00;1.00;;;;;;4913952;29;20211;-52
2022/03/05 04:59:58;;;;;;;6.23;4.00;;;-1.10;1.00;;;;;;4915340;29;20434;-52
2022/03/05 05:02:23;;;;;;;16.97;4.53;;;-1.00;1.00;;;;;;4915336;29;20463;-56
2022/03/05 05:04:49;;;;;;;9.77;4.20;;;-1.00;1.00;;;;;;4916869;29;20202;-52
2022/03/05 05:07:15;;;;;;;10.67;4.07;;;-1.00;1.00;;;;;;4914938;29;20195;-52
2022/03/05 05:09:41;;;;;;;10.20;4.13;;;-1.10;1.00;;;;;;4914748;29;20195;-52
2022/03/05 05:12:08;;;;;;;12.00;3.80;;;-1.10;1.00;;;;;;4898002;29;20568;-52
2022/03/05 05:14:34;;;;;;;11.23;4.43;;;-1.10;1.00;;;;;;4915222;29;20476;-53
2022/03/05 05:16:59;;;;;;;14.53;4.17;;;-1.00;1.00;;;;;;4914684;29;20513;-53
2022/03/05 05:19:27;;;;;;;9.70;4.07;;;-1.10;1.00;;;;;;4914678;29;20644;-53
2022/03/05 05:21:57;;;;;;;12.40;4.20;;;-1.10;1.00;;;;;;4914373;29;20483;-52
2022/03/05 05:24:29;;;;;;;13.83;5.07;;;-1.20;1.00;;;;;;4897755;29;20451;-52
2022/03/05 05:26:56;;;;;;;6.47;3.83;;;-1.20;1.00;;;;;;4911229;29;20445;-53
2022/03/05 05:29:22;;;;;;;12.77;5.03;;;-1.20;73.30;;;;;;4914176;29;20879;-53
2022/03/05 05:31:50;;;;;;;9.53;3.77;;;-1.20;92.50;;;;;;4896078;29;20476;-53
2022/03/05 05:34:16;;;;;;;6.33;3.90;;;-1.20;99.90;;;;;;4894829;29;20451;-52
2022/03/05 05:36:42;;;;;;;8.90;4.50;;;-1.20;99.90;;;;;;4895586;29;20483;-54
2022/03/05 05:39:09;;;;;;;12.93;5.00;;;-1.10;99.90;;;;;;4878536;29;20470;-52
2022/03/05 05:41:35;;;;;;;11.90;4.50;;;-1.10;99.90;;;;;;4895587;29;20203;-52
2022/03/05 05:44:02;;;;;;;9.57;5.60;;;-1.10;99.90;;;;;;4895467;29;20552;-52
2022/03/05 05:46:28;;;;;;;14.87;5.00;;;-1.20;99.90;;;;;;4895005;29;20207;-53
2022/03/05 05:48:55;;;;;;;6.83;4.53;;;-1.20;99.90;;;;;;4895129;29;20787;-54
2022/03/05 05:51:21;;;;;;;15.10;5.40;;;-1.10;1.00;;;;;;4895081;29;20187;-52
2022/03/05 05:53:48;;;;;;;8.63;5.03;;;-1.10;1.00;;;;;;4895734;29;20926;-52
2022/03/05 05:56:13;;;;;;;9.53;5.70;;;-1.10;99.90;;;;;;4895205;29;20348;-52
2022/03/05 05:58:39;;;;;;;11.73;5.93;;;-1.00;99.90;;;;;;4895207;29;20523;-49
2022/03/05 06:01:05;;;;;;;12.90;5.40;;;-1.00;99.90;;;;;;4895895;29;20199;-53
2022/03/05 06:03:30;;;;;;;8.90;5.13;;;-1.00;99.90;;;;;;4892544;29;20451;-52
2022/03/05 06:06:00;;;;;;;14.63;5.50;;;-1.00;99.90;;;;;;4894342;29;20228;-53
2022/03/05 06:08:27;;;;;;;11.20;5.90;;;-1.00;99.90;;;;;;4894965;29;20545;-52
2022/03/05 06:10:54;;;;;;;14.07;5.70;;;-1.00;99.90;;;;;;4894736;29;20843;-52
2022/03/05 06:13:20;;;;;;;12.87;5.73;;;-1.00;99.90;;;;;;4895708;29;20447;-52
2022/03/05 06:15:45;;;;;;;16.77;5.13;;;-1.00;1.00;;;;;;4878107;29;20447;-53
2022/03/05 06:18:11;;;;;;;9.43;5.13;;;-0.90;1.00;;;;;;4892995;29;21269;-52
2022/03/05 06:20:36;;;;;;;13.27;5.47;;;-1.00;1.00;;;;;;4894935;29;20557;-52
2022/03/05 06:23:02;;;;;;;8.73;4.63;;;-1.00;1.00;;;;;;4894847;29;20188;-55
2022/03/05 06:25:28;;;;;;;13.80;5.37;;;-0.90;1.00;;;;;;4895408;29;20196;-53
2022/03/05 06:27:53;;;;;;;8.67;5.17;;;-0.90;1.00;;;;;;4894643;29;20463;-53
2022/03/05 06:30:19;;;;;;;12.70;5.40;;;-0.80;1.00;;;;;;4894305;29;20879;-55
2022/03/05 06:32:45;;;;;;;11.83;5.60;;;-0.80;1.00;;;;;;4894860;29;20198;-53
2022/03/05 06:35:11;;;;;;;12.00;5.80;;;-0.80;1.00;;;;;;4894264;29;20204;-56
2022/03/05 06:37:36;;;;;;;8.93;4.87;;;-0.80;1.00;;;;;;4894868;29;20215;-53
2022/03/05 06:40:03;;;;;;;14.30;5.43;;;-0.70;1.00;;;;;;4895449;29;20271;-53
2022/03/05 06:42:29;;;;;;;11.63;5.70;;;-0.80;1.00;;;;;;4894752;29;20500;-52
2022/03/05 06:44:54;;;;;;;11.07;5.40;;;-0.80;1.00;;;;;;4894037;29;20592;-52
2022/03/05 06:47:20;;;;;;;13.73;5.80;;;-0.80;1.00;;;;;;4894330;29;20661;-52
2022/03/05 06:49:46;;;;;;;12.67;5.77;;;-0.80;1.00;;;;;;4894716;29;20188;-53
2022/03/05 06:52:11;;;;;;;9.47;5.87;;;-0.70;1.00;;;;;;4894932;29;20184;-53
2022/03/05 06:54:37;;;;;;;8.63;5.03;;;-0.60;1.00;;;;;;4893908;29;20212;-55
2022/03/05 06:57:04;;;;;;;8.77;5.43;;;-0.50;1.00;;;;;;4894991;29;21039;-53
2022/03/05 06:59:29;;;;;;;10.77;5.63;;;-0.40;99.90;;;;;;4894313;29;20486;-52
2022/03/05 07:01:55;;;;;;;13.83;5.57;;;-0.40;99.90;;;;;;4893444;29;20432;-53
2022/03/05 07:04:21;;;;;;;10.10;4.90;;;-0.30;99.90;;;;;;4894001;29;20715;-52
2022/03/05 07:06:47;;;;;;;8.23;5.50;;;-0.10;1.00;;;;;;4893380;29;20239;-52
2022/03/05 07:09:14;;;;;;;14.13;5.57;;;0.00;99.90;;;;;;4877070;29;20196;-53
2022/03/05 07:11:39;;;;;;;8.47;5.47;;;0.10;1.00;;;;;;4894347;29;20590;-52
2022/03/05 07:14:05;;;;;;;13.80;5.73;;;0.20;1.00;;;;;;4894073;29;20436;-52
2022/03/05 07:16:31;;;;;;;8.33;5.23;;;0.10;1.00;;;;;;4893996;29;20219;-54
2022/03/05 07:18:57;;;;;;;11.23;5.80;;;0.20;1.00;;;;;;4893406;29;20436;-53
2022/03/05 07:21:22;;;;;;;9.90;5.60;;;0.20;1.00;;;;;;4894048;29;20188;-52
2022/03/05 07:23:48;;;;;;;11.53;5.00;;;0.30;1.00;;;;;;4893260;29;20267;-52
2022/03/05 07:26:13;;;;;;;9.63;5.03;;;0.40;1.00;;;;;;4890863;29;20196;-52
2022/03/05 07:28:39;;;;;;;8.90;5.70;;;0.70;99.90;;;;;;4891039;29;20195;-52
2022/03/05 07:31:04;;;;;;;10.23;4.90;;;0.90;99.90;;;;;;4893454;29;20279;-52
2022/03/05 07:33:30;;;;;;;13.17;5.90;;;1.10;99.90;;;;;;4891482;29;20188;-51
2022/03/05 07:35:56;;;;;;;10.83;5.70;;;1.20;99.90;;;;;;4891443;29;20582;-51
2022/03/05 07:38:21;;;;;;;12.00;5.60;;;1.40;99.90;;;;;;4893769;29;20196;-51
2022/03/05 07:40:47;;;;;;;9.13;4.70;;;1.50;81.80;;;;;;4893758;29;20467;-51
2022/03/05 07:43:12;;;;;;;10.00;5.20;;;1.60;88.80;;;;;;4893302;29;20182;-51
2022/03/05 07:45:38;;;;;;;7.77;5.47;;;1.70;19.40;;;;;;4877153;29;20220;-51
2022/03/05 07:48:04;;;;;;;10.87;5.67;;;1.80;15.40;;;;;;4893877;29;20199;-51
2022/03/05 07:50:30;;;;;;;11.00;5.80;;;2.30;6.20;;;;;;4893256;29;20436;-50
2022/03/05 07:52:56;;;;;;;9.17;4.90;;;3.00;1.00;;;;;;4892410;29;20447;-51
2022/03/05 07:55:22;;;;;;;8.60;4.83;;;3.90;1.00;;;;;;4893321;29;20787;-51
2022/03/05 07:57:47;;;;;;;9.47;5.63;;;4.40;1.00;;;;;;4893280;29;20566;-51
2022/03/05 08:00:13;;;;;;;10.50;5.70;;;4.90;1.00;;;;;;4893408;29;20266;-51
2022/03/05 08:02:38;;;;;;;8.60;5.10;;;5.50;1.00;;;;;;4891288;29;20210;-51
2022/03/05 08:05:04;;;;;;;10.10;4.43;;;6.40;1.00;;;;;;4889920;29;20192;-51
2022/03/05 08:07:31;;;;;;;6.03;3.90;;;6.80;99.90;;;;;;4893255;29;20208;-51
2022/03/05 08:09:56;;;;;;;7.73;5.13;;;7.30;99.90;;;;;;4893190;29;20443;-52
2022/03/05 08:12:22;;;;;;;9.37;4.73;;;7.70;99.90;;;;;;4893409;29;20448;-50
2022/03/05 08:14:48;;;;;;;13.43;5.00;;;8.10;99.90;;;;;;4895635;29;20579;-52
2022/03/05 08:17:14;;;;;;;7.77;5.30;;;8.40;99.90;;;;;;4898221;29;20574;-51
2022/03/05 08:19:41;;;;;;;11.07;5.30;;;8.70;99.90;;;;;;4896368;29;20504;-52
2022/03/05 08:22:07;;;;;;;13.23;5.03;;;8.70;99.90;;;;;;4880361;29;20640;-52
2022/03/05 08:24:32;;;;;;;10.97;5.57;;;8.90;99.90;;;;;;4880731;29;20456;-51
2022/03/05 08:26:58;;;;;;;8.90;4.80;;;9.40;99.90;;;;;;4893449;29;20460;-51
2022/03/05 08:29:24;;;;;;;11.97;5.70;;;9.80;99.90;;;;;;4896562;29;20195;-52
2022/03/05 08:31:50;;;;;;;10.37;5.57;;;9.80;99.90;;;;;;4896806;29;20697;-51
2022/03/05 08:34:15;;;;;;;11.03;5.20;;;9.60;99.90;;;;;;4896972;29;20196;-52
2022/03/05 08:36:41;;;;;;;9.83;4.97;;;9.70;99.90;;;;;;4896863;29;20231;-52
2022/03/05 08:39:08;;;;;;;7.93;5.20;;;9.70;99.90;;;;;;4896937;29;20562;-62
2022/03/05 08:41:34;;;;;;;8.97;5.20;;;9.80;99.90;;;;;;4896939;29;20200;-51
2022/03/05 08:44:01;;;;;;;8.20;5.27;;;9.80;99.90;;;;;;4896659;29;20503;-52
2022/03/05 08:46:27;;;;;;;5.97;5.07;;;10.00;99.90;;;;;;4880178;29;20440;-57
2022/03/05 08:48:52;;;;;;;10.43;5.80;;;10.20;99.90;;;;;;4897013;29;20460;-53
2022/03/05 08:51:18;;;;;;;13.23;5.07;;;10.40;99.90;;;;;;4896745;29;20195;-53
2022/03/05 08:53:43;;;;;;;13.30;5.40;;;10.70;99.90;;;;;;4879665;29;20192;-52
2022/03/05 08:56:09;;;;;;;12.03;6.00;;;10.60;99.90;;;;;;4896842;29;20234;-52
2022/03/05 08:58:35;;;;;;;11.33;6.23;;;10.80;99.90;;;;;;4895812;29;20184;-52
2022/03/05 09:01:01;;;;;;;12.73;5.63;;;10.50;99.90;;;;;;4897116;29;20447;-52
2022/03/05 09:03:27;;;;;;;12.87;5.90;;;10.50;99.90;;;;;;4896592;29;20186;-52
2022/03/05 09:05:53;;;;;;;11.03;5.80;;;10.20;99.90;;;;;;4896183;29;20274;-52
2022/03/05 09:08:19;;;;;;;10.93;6.50;;;9.90;99.90;;;;;;4876183;29;20454;-52
2022/03/05 09:10:45;;;;;;;14.50;6.47;;;9.30;99.90;;;;;;4884846;29;20204;-52
2022/03/05 09:13:11;;;;;;;12.63;6.90;;;8.80;99.90;;;;;;4895584;29;20424;-53
2022/03/05 09:15:37;;;;;;;12.03;6.57;;;8.30;99.90;;;;;;4877996;29;20527;-52
2022/03/05 09:18:03;;;;;;;12.20;6.53;;;8.10;99.90;;;;;;4895568;29;20296;-52
2022/03/05 09:20:28;;;;;;;15.90;6.87;;;8.30;99.90;;;;;;4895580;29;20527;-53
2022/03/05 09:22:55;;;;;;;18.90;7.67;;;8.50;99.90;;;;;;4896140;29;20247;-52
2022/03/05 09:25:21;;;;;;;14.30;6.67;;;8.50;99.90;;;;;;4898106;29;20685;-52
2022/03/05 09:27:47;;;;;;;14.97;7.47;;;8.60;99.90;;;;;;4895781;29;20500;-51
2022/03/05 09:30:13;;;;;;;11.80;7.10;;;8.40;99.90;;;;;;4892403;29;20479;-52
2022/03/05 09:32:38;;;;;;;16.57;8.67;;;8.00;99.90;;;;;;4894442;29;22977;-52
2022/03/05 09:35:04;;;;;;;14.97;7.33;;;7.30;99.90;;;;;;4896178;29;20184;-52
2022/03/05 09:37:31;;;;;;;15.13;7.30;;;7.00;99.90;;;;;;4894106;29;20223;-52
2022/03/05 09:39:57;;;;;;;14.60;7.53;;;7.00;99.90;;;;;;4895217;29;20547;-52
2022/03/05 09:42:23;;;;;;;12.67;7.43;;;6.80;99.90;;;;;;4895039;29;20436;-55
2022/03/05 09:44:49;;;;;;;20.40;7.80;;;7.10;99.90;;;;;;4895792;29;20455;-51
2022/03/05 09:47:15;;;;;;;12.60;8.40;;;7.20;99.90;;;;;;4896899;29;20450;-52
2022/03/05 09:49:42;;;;;;;12.80;7.63;;;7.10;99.90;;;;;;4896619;29;20458;-52
2022/03/05 09:52:08;;;;;;;13.63;7.80;;;6.90;99.90;;;;;;4895870;29;20263;-52
2022/03/05 09:54:34;;;;;;;16.60;8.83;;;6.70;99.90;;;;;;4895498;29;20443;-52
2022/03/05 09:56:59;;;;;;;19.37;8.53;;;6.50;99.90;;;;;;4894642;29;21099;-52
2022/03/05 09:59:25;;;;;;;14.33;7.73;;;6.50;99.90;;;;;;4896492;29;20217;-52
2022/03/05 10:01:52;;;;;;;13.60;7.50;;;6.50;99.90;;;;;;4895098;29;20635;-52
2022/03/05 10:04:19;;;;;;;15.23;8.40;;;6.10;99.90;;;;;;4895277;29;20192;-51
2022/03/05 10:07:04;;;;;;;16.13;7.97;;;6.00;99.90;;;;;;4895707;29;20515;-52
2022/03/05 10:09:30;;;;;;;16.07;8.37;;;6.00;99.90;;;;;;4892630;29;20440;-51
2022/03/05 10:11:55;;;;;;;16.93;9.60;;;6.10;99.90;;;;;;4884977;29;20459;-56
2022/03/05 10:14:22;;;;;;;14.13;8.63;;;6.50;99.90;;;;;;4878680;29;20194;-52
2022/03/05 10:16:48;;;;;;;17.33;7.97;;;6.80;99.90;;;;;;4891143;29;20313;-52
2022/03/05 10:19:22;;;;;;;16.27;9.60;;;7.30;99.90;;;;;;4894362;29;20889;-52
2022/03/05 10:22:03;;;;;;;15.17;9.07;;;7.40;99.90;;;;;;4894869;29;20199;-52
2022/03/05 10:24:38;;;;;;;19.00;9.20;;;7.30;99.90;;;;;;4896062;29;20456;-52
2022/03/05 10:27:07;;;;;;;15.23;8.83;;;7.10;99.90;;;;;;4882081;29;20448;-53
2022/03/05 10:29:36;;;;;;;18.27;9.33;;;7.00;99.90;;;;;;4893997;29;20440;-52
2022/03/05 10:32:08;;;;;;;17.50;9.47;;;7.10;99.90;;;;;;4913058;29;20455;-51
2022/03/05 10:34:45;;;;;;;15.27;8.90;;;7.30;99.90;;;;;;4912936;29;20435;-52
2022/03/05 10:37:11;;;;;;;18.70;9.53;;;7.60;99.90;;;;;;4912159;29;20636;-51
2022/03/05 10:39:37;;;;;;;15.07;8.67;;;7.60;99.90;;;;;;4913108;29;20522;-51
2022/03/05 10:42:19;;;;;;;14.70;9.10;;;7.40;99.90;;;;;;4913383;29;20540;-52
2022/03/05 10:45:00;;;;;;;12.93;8.00;;;7.10;99.90;;;;;;4908897;29;20307;-52
2022/03/05 10:47:35;;;;;;;11.90;8.00;;;7.30;99.90;;;;;;4912853;29;20442;-52
2022/03/05 10:50:05;;;;;;;12.50;8.20;;;7.40;99.90;;;;;;4913539;29;20442;-53
2022/03/05 22:43:12;;;;;;;14.73;5.87;;;1.30;1.00;;;;;;5834807;23;21862;-52
2022/03/05 22:45:38;;;;;;;10.70;5.70;;;1.20;1.00;;;;;;4876176;29;20548;-52
2022/03/05 22:48:04;;;;;;;6.33;5.40;;;1.20;1.00;;;;;;4882956;29;20606;-52
2022/03/05 22:50:31;;;;;;;8.03;5.23;;;1.20;1.00;;;;;;4883025;29;20452;-52
2022/03/05 22:52:56;;;;;;;8.00;5.33;;;1.10;1.00;;;;;;4891012;29;20320;-52
2022/03/05 22:55:22;;;;;;;8.23;5.27;;;1.10;1.00;;;;;;4890513;29;20520;-52
2022/03/05 22:57:47;;;;;;;10.83;5.37;;;1.10;1.00;;;;;;4877202;29;20701;-52
2022/03/05 23:00:28;;;;;;;13.43;5.47;;;1.10;1.00;;;;;;4877966;29;20181;-52
2022/03/05 23:05:43;;;;;;;10.93;6.50;;;1.10;1.00;;;;;;4877127;29;20486;-51
2022/03/05 23:10:53;;;;;;;8.27;4.90;;;1.20;1.00;;;;;;4877641;29;20456;-52
2022/03/05 23:13:19;;;;;;;7.07;5.40;;;1.20;1.00;;;;;;4886221;29;20464;-52
2022/03/05 23:15:46;;;;;;;8.03;5.70;;;1.20;1.00;;;;;;4887880;29;20248;-54
2022/03/05 23:18:12;;;;;;;11.90;5.73;;;1.20;1.00;;;;;;4878704;29;20279;-53
2022/03/05 23:20:38;;;;;;;7.30;5.20;;;1.20;1.00;;;;;;4876864;29;20480;-52
2022/03/05 23:23:03;;;;;;;13.40;6.47;;;1.10;1.00;;;;;;4860005;29;20184;-52
2022/03/05 23:25:29;;;;;;;10.43;5.67;;;1.20;1.00;;;;;;4860263;29;20185;-53
2022/03/05 23:27:54;;;;;;;10.83;5.80;;;1.20;1.00;;;;;;4877127;29;20252;-52
2022/03/05 23:30:20;;;;;;;8.87;5.50;;;1.20;1.00;;;;;;4876904;29;20204;-53
2022/03/05 23:32:46;;;;;;;7.83;5.50;;;1.10;1.00;;;;;;4877055;29;20187;-51
2022/03/05 23:35:12;;;;;;;9.20;5.73;;;1.10;1.00;;;;;;4876749;29;21099;-52
2022/03/05 23:37:39;;;;;;;7.07;5.60;;;1.10;1.00;;;;;;4877091;29;20470;-52
2022/03/05 23:40:06;;;;;;;10.80;6.43;;;1.00;1.00;;;;;;4877143;29;20405;-51
2022/03/05 23:42:31;;;;;;;8.80;5.43;;;1.00;1.00;;;;;;4876781;29;20417;-51
2022/03/05 23:44:57;;;;;;;9.93;6.40;;;1.00;1.00;;;;;;4876064;29;20484;-63
2022/03/05 23:47:23;;;;;;;8.97;6.33;;;1.00;1.00;;;;;;4876692;29;20252;-51
2022/03/05 23:49:50;;;;;;;8.43;5.67;;;1.00;1.00;;;;;;4869332;29;20232;-52
2022/03/05 23:52:16;;;;;;;9.70;5.50;;;1.00;1.00;;;;;;4876841;29;20184;-52
2022/03/05 23:54:41;;;;;;;10.87;5.73;;;1.00;1.00;;;;;;4876239;29;20473;-52
2022/03/05 23:57:07;;;;;;;8.20;6.00;;;1.00;1.00;;;;;;4876594;29;20496;-52
2022/03/05 23:59:32;;;;;;;10.00;6.50;;;1.00;1.00;;;;;;4876506;29;20185;-52
